createdAt,value
2023-01-28T00:04:22.318Z,49.30
2023-01-28T00:09:15.825Z,46.83
2023-01-28T00:14:11.966Z,48.90
2023-01-28T00:16:38.915Z,50.65
2023-01-28T00:19:05.816Z,40.53
2023-01-28T00:21:32.711Z,51.65
2023-01-28T00:26:26.554Z,39.25
2023-01-28T00:28:53.462Z,48.20
2023-01-28T00:31:25.149Z,48.85
2023-01-28T00:33:52.740Z,49.83
2023-01-28T00:36:21.640Z,56.20
2023-01-28T00:38:53.547Z,36.40
2023-01-28T00:41:25.276Z,43.65
2023-01-28T00:43:53.088Z,44.90
2023-01-28T00:46:21.070Z,51.75
2023-01-28T00:48:48.033Z,46.65
2023-01-28T00:51:17.398Z,55.58
2023-01-28T00:53:44.565Z,51.22
2023-01-28T00:56:14.361Z,52.08
2023-01-28T00:58:41.618Z,49.35
2023-01-28T01:01:19.902Z,48.15
2023-01-28T01:03:47.332Z,46.50
2023-01-28T01:06:15.890Z,52.30
2023-01-28T01:08:50.718Z,50.60
2023-01-28T01:11:18.150Z,52.55
2023-01-28T01:13:45.008Z,40.88
2023-01-28T01:18:42.211Z,53.20
2023-01-28T01:21:12.586Z,51.80
2023-01-28T01:23:39.801Z,52.97
2023-01-28T01:26:07.359Z,52.30
2023-01-28T01:28:34.616Z,53.22
2023-01-28T01:31:08.154Z,54.05
2023-01-28T01:33:35.448Z,48.97
2023-01-28T01:36:02.309Z,51.33
2023-01-28T01:40:59.931Z,57.05
2023-01-28T01:43:48.949Z,48.50
2023-01-28T01:46:18.115Z,48.05
2023-01-28T01:48:45.125Z,46.28
2023-01-28T01:51:15.512Z,47.78
2023-01-28T01:53:45.670Z,58.20
2023-01-28T01:56:17.064Z,53.28
2023-01-28T01:58:46.033Z,50.03
2023-01-28T02:01:13.869Z,52.53
2023-01-28T02:04:05.697Z,54.60
2023-01-28T02:06:32.831Z,37.67
2023-01-28T02:08:59.689Z,50.65
2023-01-28T02:13:57.234Z,53.83
2023-01-28T02:16:24.780Z,39.15
2023-01-28T02:18:51.748Z,51.05
2023-01-28T02:22:00.543Z,45.78
2023-01-28T02:24:42.303Z,50.63
2023-01-28T02:27:23.206Z,53.42
2023-01-28T02:29:53.055Z,58.05
2023-01-28T02:32:28.275Z,52.80
2023-01-28T02:35:18.960Z,46.78
2023-01-28T02:38:07.263Z,50.45
2023-01-28T02:40:57.419Z,53.47
2023-01-28T02:43:38.780Z,57.22
2023-01-28T02:46:40.345Z,52.42
2023-01-28T02:49:12.259Z,34.50
2023-01-28T02:51:59.654Z,51.55
2023-01-28T02:55:08.078Z,42.17
2023-01-28T02:57:43.481Z,45.30
2023-01-28T03:00:42.611Z,43.28
2023-01-28T03:03:09.415Z,45.20
2023-01-28T03:08:25.459Z,46.00
2023-01-28T03:11:12.716Z,40.55
2023-01-28T03:13:59.209Z,39.75
2023-01-28T03:16:44.399Z,40.78
2023-01-28T03:19:30.503Z,47.35
2023-01-28T03:22:16.908Z,41.67
2023-01-28T03:25:06.474Z,46.15
2023-01-28T03:27:58.893Z,39.33
2023-01-28T03:30:53.286Z,41.47
2023-01-28T03:33:39.194Z,33.50
2023-01-28T03:36:26.135Z,34.72
2023-01-28T03:38:53.138Z,45.33
2023-01-28T03:41:22.650Z,43.95
2023-01-28T03:43:50.323Z,43.47
2023-01-28T03:46:18.692Z,42.13
2023-01-28T03:48:46.109Z,47.65
2023-01-28T03:51:12.990Z,44.72
2023-01-28T03:53:40.554Z,35.90
2023-01-28T03:56:07.615Z,43.87
2023-01-28T03:58:52.908Z,43.28
2023-01-28T04:01:20.688Z,43.60
2023-01-28T04:03:47.735Z,37.75
2023-01-28T04:06:15.021Z,39.80
2023-01-28T04:08:46.262Z,36.60
2023-01-28T04:11:15.944Z,41.67
2023-01-28T04:13:43.600Z,35.58
2023-01-28T04:16:14.143Z,38.10
2023-01-28T04:18:41.073Z,34.95
2023-01-28T04:21:07.959Z,42.75
2023-01-28T04:23:35.278Z,40.72
2023-01-28T04:26:02.211Z,31.73
2023-01-28T04:28:29.056Z,32.72
2023-01-28T04:33:23.411Z,35.25
2023-01-28T04:35:50.266Z,32.63
2023-01-28T04:38:17.185Z,29.75
2023-01-28T04:40:44.037Z,39.28
2023-01-28T04:45:37.551Z,37.47
2023-01-28T04:50:31.120Z,33.13
2023-01-28T04:55:24.782Z,36.53
2023-01-28T04:57:51.639Z,34.00
2023-01-28T05:02:45.519Z,31.35
2023-01-28T05:05:12.472Z,34.30
2023-01-28T05:07:39.500Z,35.03
2023-01-28T05:10:07.873Z,34.72
2023-01-28T05:12:34.716Z,36.53
2023-01-28T05:17:29.050Z,32.13
2023-01-28T05:19:56.020Z,32.67
2023-01-28T05:22:22.987Z,32.05
2023-01-28T05:24:49.832Z,32.13
2023-01-28T05:29:43.341Z,36.63
2023-01-28T05:34:36.953Z,36.15
2023-01-28T05:37:03.855Z,30.60
2023-01-28T05:39:31.534Z,37.67
2023-01-28T05:41:58.560Z,35.63
2023-01-28T05:44:25.426Z,40.00
2023-01-28T05:46:52.300Z,40.67
2023-01-28T05:49:19.168Z,34.50
2023-01-28T05:51:46.105Z,39.35
2023-01-28T05:54:13.209Z,37.35
2023-01-28T05:56:40.966Z,40.25
2023-01-28T05:59:08.262Z,42.67
2023-01-28T06:01:36.107Z,41.33
2023-01-28T06:04:03.010Z,38.30
2023-01-28T06:06:29.939Z,39.83
2023-01-28T06:08:56.917Z,38.90
2023-01-28T06:11:23.842Z,32.60
2023-01-28T06:13:50.755Z,38.33
2023-01-28T06:16:17.738Z,42.72
2023-01-28T06:18:45.015Z,38.05
2023-01-28T06:21:11.968Z,34.15
2023-01-28T06:23:38.858Z,34.45
2023-01-28T06:26:05.697Z,31.45
2023-01-28T06:30:59.225Z,30.88
2023-01-28T06:33:26.164Z,32.55
2023-01-28T06:35:53.120Z,37.25
2023-01-28T06:38:19.997Z,35.75
2023-01-28T06:43:18.494Z,31.70
2023-01-28T06:45:45.375Z,27.98
2023-01-28T06:50:38.907Z,37.78
2023-01-28T06:55:32.504Z,35.47
2023-01-28T07:00:30.362Z,34.75
2023-01-28T07:02:57.540Z,37.15
2023-01-28T07:05:24.766Z,36.67
2023-01-28T07:07:51.854Z,38.28
2023-01-28T07:10:18.866Z,38.75
2023-01-28T07:12:45.966Z,37.42
2023-01-28T07:15:13.871Z,40.72
2023-01-28T07:17:43.531Z,40.67
2023-01-28T07:20:13.196Z,39.17
2023-01-28T07:22:44.077Z,38.20
2023-01-28T07:25:12.152Z,42.42
2023-01-28T07:27:39.202Z,39.22
2023-01-28T07:30:06.623Z,44.72
2023-01-28T07:32:33.511Z,39.10
2023-01-28T07:35:00.377Z,40.35
2023-01-28T07:39:55.968Z,31.73
2023-01-28T07:42:22.807Z,38.22
2023-01-28T07:47:16.962Z,30.40
2023-01-28T07:49:43.830Z,33.08
2023-01-28T07:54:37.448Z,40.47
2023-01-28T07:57:10.054Z,38.95
2023-01-28T07:59:39.212Z,34.85
2023-01-28T08:02:06.533Z,35.13
2023-01-28T08:04:33.457Z,37.38
2023-01-28T08:07:00.360Z,32.83
2023-01-28T08:11:54.966Z,35.85
2023-01-28T08:14:21.823Z,41.05
2023-01-28T08:19:16.297Z,41.65
2023-01-28T08:21:43.187Z,38.42
2023-01-28T08:24:10.256Z,43.92
2023-01-28T08:26:37.201Z,42.70
2023-01-28T08:29:04.119Z,40.12
2023-01-28T08:31:31.127Z,44.28
2023-01-28T08:33:59.461Z,39.38
2023-01-28T08:36:27.472Z,43.05
2023-01-28T08:41:24.302Z,38.47
2023-01-28T08:43:51.152Z,41.85
2023-01-28T08:48:44.824Z,40.12
2023-01-28T08:51:11.686Z,37.00
2023-01-28T08:56:05.704Z,43.33
2023-01-28T08:58:32.690Z,39.42
2023-01-28T09:01:04.872Z,42.00
2023-01-28T09:03:31.804Z,38.63
2023-01-28T09:06:03.347Z,40.53
2023-01-28T09:08:30.278Z,35.40
2023-01-28T09:10:58.789Z,40.63
2023-01-28T09:13:25.968Z,41.75
2023-01-28T09:15:53.037Z,36.15
2023-01-28T09:18:20.102Z,39.88
2023-01-28T09:20:47.173Z,40.40
2023-01-28T09:23:14.345Z,41.55
2023-01-28T09:25:41.260Z,35.97
2023-01-28T09:28:08.196Z,35.55
2023-01-28T09:30:37.083Z,35.53
2023-01-28T09:33:04.546Z,38.15
2023-01-28T09:35:31.440Z,33.40
2023-01-28T09:40:57.919Z,35.67
2023-01-28T09:43:44.644Z,34.13
2023-01-28T09:46:13.385Z,36.35
2023-01-28T09:48:47.841Z,34.22
2023-01-28T09:51:28.081Z,40.30
2023-01-28T09:53:56.166Z,32.60
2023-01-28T09:56:26.922Z,35.15
2023-01-28T09:58:53.836Z,38.78
2023-01-28T10:01:38.149Z,40.20
2023-01-28T10:04:09.989Z,38.58
2023-01-28T10:06:55.205Z,40.10
2023-01-28T10:10:16.104Z,38.25
2023-01-28T10:13:21.981Z,40.28
2023-01-28T10:16:24.918Z,35.25
2023-01-28T10:19:07.695Z,35.58
2023-01-28T10:21:42.230Z,37.65
2023-01-28T10:24:11.583Z,40.53
2023-01-28T10:26:42.017Z,37.97
2023-01-28T10:29:20.050Z,37.45
2023-01-28T10:32:12.272Z,43.90
2023-01-28T10:34:39.294Z,43.45
2023-01-28T10:37:06.143Z,39.47
2023-01-28T10:41:59.790Z,37.65
2023-01-28T10:44:34.726Z,45.67
2023-01-28T10:47:05.588Z,39.72
2023-01-28T10:49:33.175Z,35.25
2023-01-28T10:51:59.989Z,37.10
2023-01-28T10:57:03.252Z,38.03
2023-01-28T10:59:36.853Z,41.78
2023-01-28T11:02:22.989Z,43.17
2023-01-28T11:05:18.930Z,39.17
2023-01-28T11:07:45.826Z,35.75
2023-01-28T11:10:26.740Z,42.53
2023-01-28T11:13:00.730Z,41.45
2023-01-28T11:15:27.711Z,43.40
2023-01-28T11:18:00.418Z,40.35
2023-01-28T11:20:38.302Z,41.35
2023-01-28T11:23:05.457Z,40.55
2023-01-28T11:25:37.070Z,39.38
2023-01-28T11:28:08.913Z,41.63
2023-01-28T11:30:40.459Z,34.53
2023-01-28T11:33:17.387Z,38.58
2023-01-28T11:35:55.767Z,34.83
2023-01-28T11:38:24.747Z,38.00
2023-01-28T11:40:56.788Z,40.83
2023-01-28T11:43:28.605Z,38.38
2023-01-28T11:46:13.822Z,41.33
2023-01-28T11:48:47.766Z,41.30
2023-01-28T11:51:30.896Z,42.92
2023-01-28T11:54:33.803Z,40.55
2023-01-28T11:57:18.912Z,40.55
2023-01-28T11:59:58.735Z,41.47
2023-01-28T12:02:47.318Z,39.17
2023-01-28T12:05:20.344Z,35.67
2023-01-28T12:08:00.251Z,34.72
2023-01-28T12:10:46.096Z,44.38
2023-01-28T12:13:30.079Z,40.88
2023-01-28T12:16:07.324Z,41.03
2023-01-28T12:19:13.498Z,40.35
2023-01-28T12:21:48.281Z,39.88
2023-01-28T12:24:41.384Z,37.38
2023-01-28T12:27:08.585Z,41.10
2023-01-28T12:30:01.673Z,39.08
2023-01-28T12:32:31.696Z,41.15
2023-01-28T12:35:17.287Z,39.20
2023-01-28T12:38:07.282Z,37.50
2023-01-28T12:40:55.753Z,43.33
2023-01-28T12:43:27.675Z,30.70
2023-01-28T12:45:58.321Z,38.17
2023-01-28T12:48:33.226Z,40.40
2023-01-28T12:51:22.939Z,41.42
2023-01-28T12:54:00.043Z,36.90
2023-01-28T12:56:51.482Z,32.50
2023-01-28T12:59:40.501Z,33.63
2023-01-28T13:02:13.661Z,32.60
2023-01-28T13:05:05.258Z,34.13
2023-01-28T13:07:51.136Z,32.40
2023-01-28T13:10:43.684Z,35.67
2023-01-28T13:13:37.044Z,33.78
2023-01-28T13:16:05.368Z,36.60
2023-01-28T13:18:48.095Z,34.17
2023-01-28T13:21:27.918Z,34.60
2023-01-28T13:24:10.191Z,34.38
2023-01-28T13:26:43.591Z,35.15
2023-01-28T13:29:25.832Z,31.02
2023-01-28T13:32:03.248Z,34.90
2023-01-28T13:34:30.266Z,33.15
2023-01-28T13:39:25.686Z,31.70
2023-01-28T13:42:19.812Z,35.38
2023-01-28T13:44:46.723Z,34.22
2023-01-28T13:47:27.601Z,33.17
2023-01-28T13:49:56.876Z,35.25
2023-01-28T13:52:28.187Z,29.80
2023-01-28T13:55:11.596Z,29.63
2023-01-28T13:57:59.218Z,33.28
2023-01-28T14:00:46.441Z,30.02
2023-01-28T14:03:41.587Z,34.00
2023-01-28T14:06:34.675Z,28.15
2023-01-28T14:09:24.006Z,32.97
2023-01-28T14:12:21.956Z,32.58
2023-01-28T14:15:04.773Z,34.78
2023-01-28T14:17:49.384Z,33.75
2023-01-28T14:20:21.539Z,33.58
2023-01-28T14:22:49.569Z,33.33
2023-01-28T14:25:39.652Z,32.92
2023-01-28T14:28:08.681Z,34.72
2023-01-28T14:30:48.146Z,28.60
2023-01-28T14:33:15.020Z,34.72
2023-01-28T14:38:15.631Z,32.03
2023-01-28T14:40:42.817Z,35.42
2023-01-28T14:43:16.229Z,36.30
2023-01-28T14:45:49.231Z,37.95
2023-01-28T14:48:31.406Z,33.30
2023-01-28T14:51:18.768Z,33.50
2023-01-28T14:54:17.654Z,36.97
2023-01-28T14:57:22.102Z,37.25
2023-01-28T14:59:58.174Z,35.63
2023-01-28T15:02:28.138Z,39.80
2023-01-28T15:04:55.698Z,34.63
2023-01-28T15:07:24.882Z,38.10
2023-01-28T15:10:08.278Z,38.28
2023-01-28T15:12:38.555Z,38.40
2023-01-28T15:15:29.137Z,40.20
2023-01-28T15:18:01.205Z,32.60
2023-01-28T15:20:36.110Z,32.78
2023-01-28T15:23:04.025Z,37.22
2023-01-28T15:25:30.922Z,37.15
2023-01-28T15:28:00.513Z,29.80
2023-01-28T15:30:30.605Z,37.15
2023-01-28T15:33:02.863Z,35.53
2023-01-28T15:35:29.885Z,37.20
2023-01-28T15:37:57.082Z,31.08
2023-01-28T15:40:26.217Z,37.75
2023-01-28T15:42:54.470Z,38.40
2023-01-28T15:45:22.860Z,36.83
2023-01-28T15:47:50.858Z,36.65
2023-01-28T15:50:23.309Z,40.38
2023-01-28T15:52:52.313Z,39.67
2023-01-28T15:55:36.113Z,40.25
2023-01-28T15:58:26.858Z,36.78
2023-01-28T16:01:08.965Z,36.78
2023-01-28T16:03:42.024Z,44.65
2023-01-28T16:06:22.123Z,40.30
2023-01-28T16:08:59.121Z,43.00
2023-01-28T16:11:32.928Z,41.17
2023-01-28T16:14:00.285Z,35.63
2023-01-28T16:16:34.460Z,42.80
2023-01-28T16:19:03.840Z,38.17
2023-01-28T16:21:37.346Z,40.30
2023-01-28T16:24:18.763Z,41.88
2023-01-28T16:26:58.724Z,38.20
2023-01-28T16:29:26.651Z,44.10
2023-01-28T16:31:54.726Z,43.83
2023-01-28T16:34:21.770Z,46.72
2023-01-28T16:36:48.795Z,43.10
2023-01-28T16:39:15.642Z,45.97
2023-01-28T16:44:13.959Z,36.38
2023-01-28T16:46:41.584Z,40.33
2023-01-28T16:49:09.463Z,41.92
2023-01-28T16:51:42.945Z,44.80
2023-01-28T16:54:14.245Z,37.65
2023-01-28T16:56:45.733Z,44.70
2023-01-28T16:59:14.979Z,45.55
2023-01-28T17:01:42.607Z,38.97
2023-01-28T17:04:12.004Z,42.33
2023-01-28T17:06:43.233Z,43.35
2023-01-28T17:09:13.732Z,46.28
2023-01-28T17:11:41.860Z,42.22
2023-01-28T17:14:10.086Z,41.67
2023-01-28T17:16:37.598Z,42.80
2023-01-28T17:19:04.689Z,46.47
2023-01-28T17:24:01.100Z,46.58
2023-01-28T17:26:29.288Z,46.33
2023-01-28T17:28:56.681Z,41.65
2023-01-28T17:31:26.450Z,42.62
2023-01-28T17:33:55.298Z,44.42
2023-01-28T17:36:22.853Z,40.50
2023-01-28T17:38:49.700Z,43.40
2023-01-28T17:46:13.581Z,38.78
2023-01-28T17:48:40.971Z,42.05
2023-01-28T17:51:07.888Z,42.38
2023-01-28T17:53:34.808Z,37.72
2023-01-28T17:56:01.707Z,40.28
2023-01-28T17:58:28.563Z,40.72
2023-01-28T18:03:22.138Z,37.78
2023-01-28T18:05:59.391Z,39.55
2023-01-28T18:08:26.527Z,46.03
2023-01-28T18:10:53.458Z,40.70
2023-01-28T18:13:20.338Z,37.70
2023-01-28T18:18:13.841Z,42.30
2023-01-28T18:23:07.358Z,39.92
2023-01-28T18:28:00.945Z,40.70
2023-01-28T18:30:30.298Z,27.92
2023-01-28T18:32:57.135Z,38.47
2023-01-28T18:37:50.656Z,40.83
2023-01-28T18:42:44.710Z,36.53
2023-01-28T18:45:11.779Z,37.65
2023-01-28T18:47:38.629Z,40.65
2023-01-28T18:50:06.360Z,38.90
2023-01-28T18:52:33.242Z,35.95
2023-01-28T18:57:26.813Z,38.45
2023-01-28T19:02:20.582Z,36.15
2023-01-28T19:04:47.614Z,31.85
2023-01-28T19:07:14.520Z,35.15
2023-01-28T19:12:08.115Z,35.20
2023-01-28T19:17:01.617Z,33.65
2023-01-28T19:21:55.102Z,33.50
2023-01-28T19:26:48.788Z,36.22
2023-01-28T19:29:16.308Z,35.70
2023-01-28T19:31:44.742Z,35.08
2023-01-28T19:34:11.848Z,36.92
2023-01-28T19:36:39.123Z,34.83
2023-01-28T19:39:08.066Z,32.72
2023-01-28T19:41:37.497Z,38.47
2023-01-28T19:44:05.231Z,32.13
2023-01-28T19:46:32.302Z,34.15
2023-01-28T19:48:59.217Z,36.13
2023-01-28T19:53:54.243Z,35.30
2023-01-28T19:56:24.391Z,33.88
2023-01-28T19:58:53.601Z,38.92
2023-01-28T20:01:23.866Z,34.20
2023-01-28T20:03:55.452Z,39.15
2023-01-28T20:06:24.059Z,34.33
2023-01-28T20:08:55.488Z,33.50
2023-01-28T20:11:23.440Z,31.62
2023-01-28T20:13:51.738Z,30.90
2023-01-28T20:16:25.326Z,32.92
2023-01-28T20:18:55.254Z,31.17
2023-01-28T20:21:22.455Z,32.40
2023-01-28T20:23:50.896Z,36.30
2023-01-28T20:26:18.603Z,29.92
2023-01-28T20:28:45.451Z,37.92
2023-01-28T20:33:39.884Z,23.45
2023-01-28T20:36:08.889Z,36.63
2023-01-28T20:38:38.927Z,31.83
2023-01-28T20:41:07.599Z,33.80
2023-01-28T20:43:38.838Z,36.20
2023-01-28T20:46:06.922Z,31.20
2023-01-28T20:48:34.057Z,34.85
2023-01-28T20:51:12.045Z,30.48
2023-01-28T20:53:39.376Z,32.67
2023-01-28T20:56:07.281Z,29.80
2023-01-28T20:58:34.165Z,30.05
2023-01-28T21:01:02.119Z,31.30
2023-01-28T21:03:28.968Z,34.45
2023-01-28T21:08:22.681Z,29.58
2023-01-28T21:10:49.606Z,35.28
2023-01-28T21:13:16.609Z,29.10
2023-01-28T21:16:02.075Z,39.38
2023-01-28T21:18:29.188Z,32.70
2023-01-28T21:20:56.210Z,37.05
2023-01-28T21:23:24.131Z,38.55
2023-01-28T21:25:52.652Z,33.40
2023-01-28T21:28:20.276Z,29.98
2023-01-28T21:30:47.666Z,37.85
2023-01-28T21:33:14.595Z,35.88
2023-01-28T21:35:43.583Z,42.28
2023-01-28T21:38:10.908Z,32.83
2023-01-28T21:40:38.579Z,38.13
2023-01-28T21:43:05.792Z,42.25
2023-01-28T21:45:32.685Z,35.08
2023-01-28T21:50:26.312Z,37.95
2023-01-28T21:52:53.160Z,39.33
2023-01-28T21:57:47.099Z,32.73
2023-01-28T22:00:15.717Z,28.85
2023-01-28T22:02:42.869Z,33.05
2023-01-28T22:05:09.923Z,37.55
2023-01-28T22:07:36.767Z,33.97
2023-01-28T22:12:30.398Z,41.47
2023-01-28T22:17:23.991Z,36.70
2023-01-28T22:19:50.852Z,36.53
2023-01-28T22:24:44.525Z,32.25
2023-01-28T22:27:11.482Z,35.47
2023-01-28T22:29:38.366Z,37.88
2023-01-28T22:34:32.293Z,39.63
2023-01-28T22:36:59.247Z,36.17
2023-01-28T22:39:26.128Z,35.88
2023-01-28T22:41:52.994Z,43.63
2023-01-28T22:46:48.064Z,35.65
2023-01-28T22:49:15.353Z,30.77
2023-01-28T22:51:42.766Z,36.88
2023-01-28T22:54:11.419Z,31.75
2023-01-28T22:56:38.541Z,34.58
2023-01-28T22:59:05.598Z,32.53
2023-01-28T23:01:33.626Z,37.47
2023-01-28T23:04:00.531Z,31.50
2023-01-28T23:08:54.640Z,32.57
2023-01-28T23:11:28.286Z,35.97
2023-01-28T23:14:19.856Z,23.55
2023-01-28T23:17:06.307Z,27.95
2023-01-28T23:19:51.740Z,40.75
2023-01-28T23:22:49.575Z,41.20
2023-01-28T23:25:17.516Z,35.70
2023-01-28T23:27:44.704Z,38.58
2023-01-28T23:30:13.005Z,40.50
2023-01-28T23:32:42.593Z,35.75
2023-01-28T23:35:10.525Z,29.63
2023-01-28T23:37:38.084Z,33.72
2023-01-28T23:40:06.089Z,34.45
2023-01-28T23:42:33.047Z,30.52
2023-01-28T23:44:59.906Z,38.92
2023-01-28T23:49:53.604Z,35.08
2023-01-28T23:54:47.095Z,27.92
2023-01-28T23:59:40.625Z,26.45
